Pagrindinis puslapis
METAR-TAF:

METAR-TAF

Oro uostai :

Džida, Saudo Arabija

platuma: 21-42N, ilguma: 039-11E, Aukštis: 15 m

Dabartinis oras

Ataskaita buvo paskelbta 57 minutes, ne 11:00 UTC
Vėjas 10 kt iš Vakarų/Šiaurės Vakarų
Temperatūra 34°C
Drėgmė 44%
Slėgis 1005 hPa
Matomumas 10 km arba daugiau
nėra debesų žemiau 1500 m ir nėra kamuolinių lietaus debesų

METAR: OEJN 041100Z 30010KT CAVOK 34/20 Q1005 NOSIG

Laikas: 14:57 (11:57 UTC)

Prognozė

Ataskaita buvo paskelbta 57 minutes, ne 11:00 UTC
Prognozė galioja nuo 04 metu 12 UTC su 05 metu 18 UTC
Vėjas 14 kt iš Šiaurės/Šiaurės Vakarų
Matomumas: 7000 m
Tapsmas
nuo 04 metu 18 UTC su 04 metu 21 UTC
Vėjas 3 kt nuo kintamojo kryptimis
Matomumas 10 km arba daugiau
nėra debesų žemiau 1500 m ir nėra kamuolinių lietaus debesų
Tapsmas
nuo 05 metu 00 UTC su 05 metu 02 UTC
Vėjas 5 kt iš Pietų
Tapsmas
nuo 05 metu 07 UTC su 05 metu 09 UTC
Vėjas 102 kt iš Vakarų

TAF: OEJN 041100Z 0412/0518 33014KT 7000 NSC BECMG 0418/0421 VRB03KT CAVOK BECMG 0500/0502 19005KT BECMG 0507/0509 260102KT

Orai ataskaitas ir orų prognozės (METAR, TAF).

turimą stotys yra geltonos ir raudonos taškus žemėlapyje.

Perkelti pele per norėdami pamatyti stoties vardą.

Tada spustelėkite, norėdami matyti oro stebėjimo ir prognozės.

Norėdami pakeisti žemėlapį: spustelėkite ant žalios mygtukų su juodo kryžiaus žemyn,; žalią mygtuką su brūkšneliu, jei norite nutolinti; arba žalių rodyklių gretimoms žemėlapius.


METAR-TAF: